KCHD/CHD METAR and TAF weather

Enter ICAO airport designator
Station Type Date Time Source
KCHD METAR 2019/05/26 22:47 UTC NOAA

KCHD 262247Z 21015KT 10SM CLR 28/02 A2980


Station Type Date Time Source
KCHD Decoded METAR 2019/05/26 22:47 UTC NOAA

Chandler, Chandler Municipal Airport, AZ, United States (KCHD) 33-16-09N 111-48-40W
May 26, 2019 - 06:47 PM EDT / 2019.05.26 2247 UTC
Wind: from the SSW (210 degrees) at 17 MPH (15 KT):0
Visibility: 10 mile(s):0
Sky conditions: clear
Temperature: 82 F (28 C)
Dew Point: 35 F (2 C)
Relative Humidity: 18%
Pressure (altimeter): 29.8 in. Hg (1009 hPa)
ob: KCHD 262247Z 21015KT 10SM CLR 28/02 A2980
cycle: 23

Station Type Date Time Source
KCHD TAF UTC NOAA

Error!

Example: see airport list